sensor_id;sensor_type;location;lat;lon;timestamp;pressure;altitude;pressure_sealevel;temperature;humidity
61434;BME280;47300;46.192;9.000;2022-12-10T00:00:35;96722.13;;;1.70;100.00
61434;BME280;47300;46.192;9.000;2022-12-10T00:03:01;96712.59;;;1.57;100.00
61434;BME280;47300;46.192;9.000;2022-12-10T00:05:26;96720.34;;;1.57;100.00
61434;BME280;47300;46.192;9.000;2022-12-10T00:07:51;96715.19;;;1.55;100.00
61434;BME280;47300;46.192;9.000;2022-12-10T00:10:17;96711.78;;;1.63;100.00
61434;BME280;47300;46.192;9.000;2022-12-10T00:12:42;96713.53;;;1.76;100.00
61434;BME280;47300;46.192;9.000;2022-12-10T00:15:07;96716.13;;;1.79;100.00
61434;BME280;47300;46.192;9.000;2022-12-10T00:17:32;96715.31;;;1.93;100.00
61434;BME280;47300;46.192;9.000;2022-12-10T00:19:58;96701.50;;;2.05;100.00
61434;BME280;47300;46.192;9.000;2022-12-10T00:22:23;96693.75;;;2.08;100.00
61434;BME280;47300;46.192;9.000;2022-12-10T00:24:48;96692.03;;;2.21;100.00
61434;BME280;47300;46.192;9.000;2022-12-10T00:27:13;96682.56;;;2.24;100.00
61434;BME280;47300;46.192;9.000;2022-12-10T00:29:39;96680.84;;;2.43;100.00
61434;BME280;47300;46.192;9.000;2022-12-10T00:32:04;96675.66;;;2.23;100.00
61434;BME280;47300;46.192;9.000;2022-12-10T00:34:30;96676.50;;;2.21;100.00
61434;BME280;47300;46.192;9.000;2022-12-10T00:36:56;96679.09;;;2.08;100.00
61434;BME280;47300;46.192;9.000;2022-12-10T00:39:21;96688.56;;;1.98;100.00
61434;BME280;47300;46.192;9.000;2022-12-10T00:41:46;96686.00;;;2.03;100.00
61434;BME280;47300;46.192;9.000;2022-12-10T00:44:12;96680.78;;;1.86;100.00
61434;BME280;47300;46.192;9.000;2022-12-10T00:46:38;96674.75;;;1.87;100.00
61434;BME280;47300;46.192;9.000;2022-12-10T00:49:03;96670.47;;;1.94;100.00
61434;BME280;47300;46.192;9.000;2022-12-10T00:51:28;96675.63;;;2.00;100.00
61434;BME280;47300;46.192;9.000;2022-12-10T00:53:54;96677.31;;;1.71;100.00
61434;BME280;47300;46.192;9.000;2022-12-10T00:56:21;96675.59;;;1.77;100.00
61434;BME280;47300;46.192;9.000;2022-12-10T00:58:47;96672.16;;;1.88;100.00
61434;BME280;47300;46.192;9.000;2022-12-10T01:01:15;96677.31;;;1.88;100.00
61434;BME280;47300;46.192;9.000;2022-12-10T01:03:40;96685.94;;;1.81;100.00
61434;BME280;47300;46.192;9.000;2022-12-10T01:06:13;96680.72;;;1.67;100.00
61434;BME280;47300;46.192;9.000;2022-12-10T01:08:39;96674.72;;;1.76;100.00
61434;BME280;47300;46.192;9.000;2022-12-10T01:11:04;96667.81;;;1.66;100.00
61434;BME280;47300;46.192;9.000;2022-12-10T01:13:30;96661.78;;;1.75;100.00
61434;BME280;47300;46.192;9.000;2022-12-10T01:15:55;96660.06;;;1.81;100.00
61434;BME280;47300;46.192;9.000;2022-12-10T01:18:20;96658.34;;;1.79;100.00
61434;BME280;47300;46.192;9.000;2022-12-10T01:20:45;96654.94;;;1.94;100.00
61434;BME280;47300;46.192;9.000;2022-12-10T01:23:10;96650.56;;;1.71;100.00
61434;BME280;47300;46.192;9.000;2022-12-10T01:25:36;96648.91;;;1.95;100.00
61434;BME280;47300;46.192;9.000;2022-12-10T01:28:01;96648.00;;;1.91;100.00
61434;BME280;47300;46.192;9.000;2022-12-10T01:30:26;96658.31;;;1.68;100.00
61434;BME280;47300;46.192;9.000;2022-12-10T01:32:51;96676.38;;;1.48;100.00
61434;BME280;47300;46.192;9.000;2022-12-10T01:35:16;96674.63;;;1.47;100.00
61434;BME280;47300;46.192;9.000;2022-12-10T01:37:42;96679.84;;;1.59;100.00
61434;BME280;47300;46.192;9.000;2022-12-10T01:40:07;96690.25;;;1.71;100.00
61434;BME280;47300;46.192;9.000;2022-12-10T01:42:32;96683.34;;;1.81;100.00
61434;BME280;47300;46.192;9.000;2022-12-10T01:44:59;96679.88;;;1.73;100.00
61434;BME280;47300;46.192;9.000;2022-12-10T01:47:25;96678.16;;;1.78;100.00
61434;BME280;47300;46.192;9.000;2022-12-10T01:49:51;96687.66;;;1.88;100.00
61434;BME280;47300;46.192;9.000;2022-12-10T01:52:16;96681.69;;;2.19;100.00
61434;BME280;47300;46.192;9.000;2022-12-10T01:54:43;96677.34;;;2.06;100.00
61434;BME280;47300;46.192;9.000;2022-12-10T01:57:12;96679.09;;;2.10;100.00
61434;BME280;47300;46.192;9.000;2022-12-10T01:59:39;96690.25;;;1.82;100.00
61434;BME280;47300;46.192;9.000;2022-12-10T02:02:20;96695.44;;;1.75;100.00
61434;BME280;47300;46.192;9.000;2022-12-10T02:04:51;96695.41;;;1.70;100.00
61434;BME280;47300;46.192;9.000;2022-12-10T02:07:25;96699.75;;;1.79;100.00
61434;BME280;47300;46.192;9.000;2022-12-10T02:17:15;96700.59;;;1.73;100.00
61434;BME280;47300;46.192;9.000;2022-12-10T02:19:54;96699.72;;;1.72;100.00
61434;BME280;47300;46.192;9.000;2022-12-10T02:22:21;96702.34;;;1.94;100.00
61434;BME280;47300;46.192;9.000;2022-12-10T02:24:48;96693.72;;;1.83;100.00
61434;BME280;47300;46.192;9.000;2022-12-10T02:27:18;96700.63;;;1.84;100.00
61434;BME280;47300;46.192;9.000;2022-12-10T02:29:46;96700.59;;;1.88;100.00
61434;BME280;47300;46.192;9.000;2022-12-10T02:32:14;96703.22;;;1.84;100.00
61434;BME280;47300;46.192;9.000;2022-12-10T02:34:45;96699.72;;;1.80;100.00
61434;BME280;47300;46.192;9.000;2022-12-10T02:37:20;96698.88;;;1.80;100.00
61434;BME280;47300;46.192;9.000;2022-12-10T02:39:47;96695.44;;;1.84;100.00
61434;BME280;47300;46.192;9.000;2022-12-10T02:42:14;96694.59;;;1.88;100.00
61434;BME280;47300;46.192;9.000;2022-12-10T02:44:40;96684.25;;;1.97;100.00
61434;BME280;47300;46.192;9.000;2022-12-10T02:47:07;96688.56;;;1.89;100.00
61434;BME280;47300;46.192;9.000;2022-12-10T02:49:33;96679.94;;;1.92;100.00
61434;BME280;47300;46.192;9.000;2022-12-10T02:51:59;96670.44;;;2.08;100.00
61434;BME280;47300;46.192;9.000;2022-12-10T02:54:37;96671.31;;;2.14;100.00
61434;BME280;47300;46.192;9.000;2022-12-10T02:57:06;96673.91;;;1.93;100.00
61434;BME280;47300;46.192;9.000;2022-12-10T02:59:37;96672.06;;;1.43;100.00
61434;BME280;47300;46.192;9.000;2022-12-10T03:06:58;96665.13;;;1.41;100.00
61434;BME280;47300;46.192;9.000;2022-12-10T03:09:47;96658.25;;;1.38;100.00
61434;BME280;47300;46.192;9.000;2022-12-10T03:12:19;96659.94;;;1.35;100.00
61434;BME280;47300;46.192;9.000;2022-12-10T03:14:47;96653.72;;;0.94;100.00
61434;BME280;47300;46.192;9.000;2022-12-10T03:17:12;96650.44;;;1.29;100.00
61434;BME280;47300;46.192;9.000;2022-12-10T03:19:47;96648.66;;;1.09;100.00
61434;BME280;47300;46.192;9.000;2022-12-10T03:22:15;96640.16;;;1.38;100.00
61434;BME280;47300;46.192;9.000;2022-12-10T03:24:40;96644.50;;;1.53;100.00
61434;BME280;47300;46.192;9.000;2022-12-10T03:27:06;96643.59;;;1.48;100.00
61434;BME280;47300;46.192;9.000;2022-12-10T03:29:35;96643.63;;;1.47;100.00
61434;BME280;47300;46.192;9.000;2022-12-10T03:32:02;96638.47;;;1.56;100.00
61434;BME280;47300;46.192;9.000;2022-12-10T03:34:28;96630.69;;;1.59;100.00
61434;BME280;47300;46.192;9.000;2022-12-10T03:36:53;96622.09;;;1.62;100.00
61434;BME280;47300;46.192;9.000;2022-12-10T03:39:18;96629.81;;;1.41;100.00
61434;BME280;47300;46.192;9.000;2022-12-10T03:41:44;96625.53;;;1.54;100.00
61434;BME280;47300;46.192;9.000;2022-12-10T03:44:09;96629.00;;;1.53;100.00
61434;BME280;47300;46.192;9.000;2022-12-10T03:46:34;96630.72;;;1.57;100.00
61434;BME280;47300;46.192;9.000;2022-12-10T03:49:00;96628.97;;;1.58;100.00
61434;BME280;47300;46.192;9.000;2022-12-10T03:51:26;96619.53;;;1.71;100.00
61434;BME280;47300;46.192;9.000;2022-12-10T03:53:51;96632.44;;;1.57;100.00
61434;BME280;47300;46.192;9.000;2022-12-10T03:56:17;96634.13;;;1.52;100.00
61434;BME280;47300;46.192;9.000;2022-12-10T03:58:43;96625.44;;;1.26;100.00
61434;BME280;47300;46.192;9.000;2022-12-10T04:01:08;96621.22;;;1.49;100.00
61434;BME280;47300;46.192;9.000;2022-12-10T04:03:37;96619.50;;;1.55;100.00
61434;BME280;47300;46.192;9.000;2022-12-10T04:06:04;96626.41;;;1.61;100.00
61434;BME280;47300;46.192;9.000;2022-12-10T04:08:29;96624.69;;;1.69;100.00
61434;BME280;47300;46.192;9.000;2022-12-10T04:11:00;96621.25;;;1.81;100.00
61434;BME280;47300;46.192;9.000;2022-12-10T04:13:26;96620.38;;;1.76;100.00
61434;BME280;47300;46.192;9.000;2022-12-10T04:16:09;96615.19;;;1.65;100.00
61434;BME280;47300;46.192;9.000;2022-12-10T04:18:57;96616.94;;;1.71;100.00
61434;BME280;47300;46.192;9.000;2022-12-10T04:21:23;96615.19;;;1.65;100.00
61434;BME280;47300;46.192;9.000;2022-12-10T04:24:08;96613.47;;;1.61;100.00
61434;BME280;47300;46.192;9.000;2022-12-10T04:26:51;96610.88;;;1.58;100.00
61434;BME280;47300;46.192;9.000;2022-12-10T04:29:18;96618.66;;;1.53;100.00
61434;BME280;47300;46.192;9.000;2022-12-10T04:31:43;96619.47;;;1.51;100.00
61434;BME280;47300;46.192;9.000;2022-12-10T04:34:08;96617.66;;;1.15;100.00
61434;BME280;47300;46.192;9.000;2022-12-10T04:36:33;96621.13;;;1.16;100.00
61434;BME280;47300;46.192;9.000;2022-12-10T04:38:59;96615.09;;;1.17;100.00
61434;BME280;47300;46.192;9.000;2022-12-10T04:41:24;96621.00;;;0.94;100.00
61434;BME280;47300;46.192;9.000;2022-12-10T04:43:49;96624.47;;;0.98;100.00
61434;BME280;47300;46.192;9.000;2022-12-10T04:46:15;96621.03;;;0.99;100.00
61434;BME280;47300;46.192;9.000;2022-12-10T04:48:40;96620.22;;;1.09;100.00
61434;BME280;47300;46.192;9.000;2022-12-10T04:51:05;96621.06;;;1.05;100.00
61434;BME280;47300;46.192;9.000;2022-12-10T04:53:30;96615.03;;;1.06;100.00
61434;BME280;47300;46.192;9.000;2022-12-10T04:55:56;96615.09;;;1.17;100.00
61434;BME280;47300;46.192;9.000;2022-12-10T04:58:21;96615.91;;;1.11;100.00
61434;BME280;47300;46.192;9.000;2022-12-10T05:00:46;96616.81;;;1.23;100.00
61434;BME280;47300;46.192;9.000;2022-12-10T05:03:11;96624.59;;;1.29;100.00
61434;BME280;47300;46.192;9.000;2022-12-10T05:05:37;96626.31;;;1.25;100.00
61434;BME280;47300;46.192;9.000;2022-12-10T05:08:02;96626.16;;;0.93;100.00
61434;BME280;47300;46.192;9.000;2022-12-10T05:10:27;96621.94;;;1.10;100.00
61434;BME280;47300;46.192;9.000;2022-12-10T05:12:52;96627.97;;;1.06;100.00
61434;BME280;47300;46.192;9.000;2022-12-10T05:15:18;96618.47;;;1.02;100.00
61434;BME280;47300;46.192;9.000;2022-12-10T05:17:43;96611.66;;;1.26;100.00
61434;BME280;47300;46.192;9.000;2022-12-10T05:20:08;96616.03;;;1.39;100.00
61434;BME280;47300;46.192;9.000;2022-12-10T05:22:34;96622.06;;;1.38;100.00
61434;BME280;47300;46.192;9.000;2022-12-10T05:25:18;96615.16;;;1.47;100.00
61434;BME280;47300;46.192;9.000;2022-12-10T05:27:43;96622.06;;;1.51;100.00
61434;BME280;47300;46.192;9.000;2022-12-10T05:30:08;96623.81;;;1.55;100.00
61434;BME280;47300;46.192;9.000;2022-12-10T05:32:34;96628.13;;;1.68;100.00
61434;BME280;47300;46.192;9.000;2022-12-10T05:34:59;96629.00;;;1.70;100.00
61434;BME280;47300;46.192;9.000;2022-12-10T05:37:25;96637.63;;;1.69;100.00
61434;BME280;47300;46.192;9.000;2022-12-10T05:39:50;96645.38;;;1.60;100.00
61434;BME280;47300;46.192;9.000;2022-12-10T05:42:15;96646.22;;;1.53;100.00
61434;BME280;47300;46.192;9.000;2022-12-10T05:44:40;96648.81;;;1.65;100.00
61434;BME280;47300;46.192;9.000;2022-12-10T05:47:05;96647.09;;;1.56;100.00
61434;BME280;47300;46.192;9.000;2022-12-10T05:49:31;96648.88;;;1.81;100.00
61434;BME280;47300;46.192;9.000;2022-12-10T05:51:56;96645.44;;;1.88;100.00
61434;BME280;47300;46.192;9.000;2022-12-10T05:54:21;96650.44;;;1.27;100.00
61434;BME280;47300;46.192;9.000;2022-12-10T05:56:46;96641.84;;;1.33;100.00
61434;BME280;47300;46.192;9.000;2022-12-10T05:59:11;96643.66;;;1.68;100.00
61434;BME280;47300;46.192;9.000;2022-12-10T06:01:37;96639.41;;;2.06;100.00
61434;BME280;47300;46.192;9.000;2022-12-10T06:04:03;96642.88;;;2.10;100.00
61434;BME280;47300;46.192;9.000;2022-12-10T06:06:30;96642.00;;;2.33;100.00
61434;BME280;47300;46.192;9.000;2022-12-10T06:08:55;96644.59;;;2.23;100.00
61434;BME280;47300;46.192;9.000;2022-12-10T06:11:21;96642.00;;;2.19;100.00
61434;BME280;47300;46.192;9.000;2022-12-10T06:13:46;96641.16;;;2.15;100.00
61434;BME280;47300;46.192;9.000;2022-12-10T06:16:13;96630.78;;;2.30;100.00
61434;BME280;47300;46.192;9.000;2022-12-10T06:18:38;96637.69;;;2.42;100.00
61434;BME280;47300;46.192;9.000;2022-12-10T06:21:04;96641.97;;;2.50;100.00
61434;BME280;47300;46.192;9.000;2022-12-10T06:23:29;96642.00;;;2.29;100.00
61434;BME280;47300;46.192;9.000;2022-12-10T06:25:54;96640.25;;;2.31;100.00
61434;BME280;47300;46.192;9.000;2022-12-10T06:28:20;96635.06;;;2.24;100.00
61434;BME280;47300;46.192;9.000;2022-12-10T06:30:45;96639.41;;;2.46;100.00
61434;BME280;47300;46.192;9.000;2022-12-10T06:33:10;96640.22;;;2.72;100.00
61434;BME280;47300;46.192;9.000;2022-12-10T06:35:36;96642.81;;;2.58;100.00
61434;BME280;47300;46.192;9.000;2022-12-10T06:38:01;96644.56;;;2.50;100.00
61434;BME280;47300;46.192;9.000;2022-12-10T06:40:27;96638.53;;;2.43;100.00
61434;BME280;47300;46.192;9.000;2022-12-10T06:42:52;96642.00;;;2.40;100.00
61434;BME280;47300;46.192;9.000;2022-12-10T06:45:17;96643.72;;;2.13;100.00
61434;BME280;47300;46.192;9.000;2022-12-10T06:47:42;96641.13;;;2.13;100.00
61434;BME280;47300;46.192;9.000;2022-12-10T06:50:08;96634.22;;;2.48;100.00
61434;BME280;47300;46.192;9.000;2022-12-10T06:52:33;96639.38;;;2.53;100.00
61434;BME280;47300;46.192;9.000;2022-12-10T06:54:58;96635.94;;;2.58;100.00
61434;BME280;47300;46.192;9.000;2022-12-10T06:57:23;96632.47;;;2.63;100.00
61434;BME280;47300;46.192;9.000;2022-12-10T06:59:49;96626.41;;;2.62;100.00
61434;BME280;47300;46.192;9.000;2022-12-10T07:02:14;96630.72;;;2.68;100.00
61434;BME280;47300;46.192;9.000;2022-12-10T07:04:39;96626.41;;;2.74;100.00
61434;BME280;47300;46.192;9.000;2022-12-10T07:07:05;96634.16;;;2.73;100.00
61434;BME280;47300;46.192;9.000;2022-12-10T07:09:31;96635.94;;;2.51;100.00
61434;BME280;47300;46.192;9.000;2022-12-10T07:11:57;96632.53;;;2.10;100.00
61434;BME280;47300;46.192;9.000;2022-12-10T07:14:22;96629.06;;;2.28;100.00
61434;BME280;47300;46.192;9.000;2022-12-10T07:16:47;96629.91;;;2.41;100.00
61434;BME280;47300;46.192;9.000;2022-12-10T07:19:12;96623.00;;;2.10;100.00
61434;BME280;47300;46.192;9.000;2022-12-10T07:21:40;96635.09;;;2.16;100.00
61434;BME280;47300;46.192;9.000;2022-12-10T07:24:07;96635.09;;;2.31;100.00
61434;BME280;47300;46.192;9.000;2022-12-10T07:26:33;96635.09;;;2.47;100.00
61434;BME280;47300;46.192;9.000;2022-12-10T07:29:00;96631.63;;;2.54;100.00
61434;BME280;47300;46.192;9.000;2022-12-10T07:31:25;96630.75;;;2.54;100.00
61434;BME280;47300;46.192;9.000;2022-12-10T07:33:51;96632.47;;;2.61;100.00
61434;BME280;47300;46.192;9.000;2022-12-10T07:36:17;96624.69;;;2.66;100.00
61434;BME280;47300;46.192;9.000;2022-12-10T07:38:42;96634.19;;;2.59;100.00
61434;BME280;47300;46.192;9.000;2022-12-10T07:41:09;96630.72;;;2.60;100.00
61434;BME280;47300;46.192;9.000;2022-12-10T07:43:36;96630.75;;;2.43;100.00
61434;BME280;47300;46.192;9.000;2022-12-10T07:46:05;96636.81;;;2.43;100.00
61434;BME280;47300;46.192;9.000;2022-12-10T07:48:30;96642.00;;;2.19;100.00
61434;BME280;47300;46.192;9.000;2022-12-10T07:50:56;96633.38;;;2.18;100.00
61434;BME280;47300;46.192;9.000;2022-12-10T07:53:22;96624.72;;;2.24;100.00
61434;BME280;47300;46.192;9.000;2022-12-10T07:55:47;96625.59;;;2.01;100.00
61434;BME280;47300;46.192;9.000;2022-12-10T07:58:12;96630.78;;;1.98;100.00
61434;BME280;47300;46.192;9.000;2022-12-10T08:00:38;96631.63;;;1.94;100.00
61434;BME280;47300;46.192;9.000;2022-12-10T08:03:03;96621.28;;;1.91;100.00
61434;BME280;47300;46.192;9.000;2022-12-10T08:05:28;96625.59;;;2.13;100.00
61434;BME280;47300;46.192;9.000;2022-12-10T08:07:53;96618.69;;;2.06;100.00
61434;BME280;47300;46.192;9.000;2022-12-10T08:10:18;96610.94;;;2.20;100.00
61434;BME280;47300;46.192;9.000;2022-12-10T08:12:44;96619.53;;;2.55;100.00
61434;BME280;47300;46.192;9.000;2022-12-10T08:15:09;96624.72;;;2.31;100.00
61434;BME280;47300;46.192;9.000;2022-12-10T08:17:35;96620.38;;;2.54;100.00
61434;BME280;47300;46.192;9.000;2022-12-10T08:20:00;96622.97;;;2.60;100.00
61434;BME280;47300;46.192;9.000;2022-12-10T08:22:25;96624.66;;;2.83;100.00
61434;BME280;47300;46.192;9.000;2022-12-10T08:24:50;96635.84;;;2.91;100.00
61434;BME280;47300;46.192;9.000;2022-12-10T08:27:16;96629.81;;;2.86;100.00
61434;BME280;47300;46.192;9.000;2022-12-10T08:29:41;96637.66;;;2.70;100.00
61434;BME280;47300;46.192;9.000;2022-12-10T08:32:06;96629.84;;;2.84;100.00
61434;BME280;47300;46.192;9.000;2022-12-10T08:34:31;96629.00;;;2.74;100.00
61434;BME280;47300;46.192;9.000;2022-12-10T08:36:57;96630.75;;;2.57;100.00
61434;BME280;47300;46.192;9.000;2022-12-10T08:39:22;96637.69;;;2.47;100.00
61434;BME280;47300;46.192;9.000;2022-12-10T08:41:47;96625.59;;;2.23;100.00
61434;BME280;47300;46.192;9.000;2022-12-10T08:44:12;96624.69;;;2.55;100.00
61434;BME280;47300;46.192;9.000;2022-12-10T08:46:38;96629.84;;;2.77;100.00
61434;BME280;47300;46.192;9.000;2022-12-10T08:49:04;96626.34;;;2.95;100.00
61434;BME280;47300;46.192;9.000;2022-12-10T08:51:29;96624.53;;;3.18;100.00
61434;BME280;47300;46.192;9.000;2022-12-10T08:53:54;96638.34;;;3.24;100.00
61434;BME280;47300;46.192;9.000;2022-12-10T08:56:19;96634.03;;;3.16;100.00
61434;BME280;47300;46.192;9.000;2022-12-10T08:58:45;96641.09;;;2.71;100.00
61434;BME280;47300;46.192;9.000;2022-12-10T09:01:11;96634.16;;;2.76;100.00
61434;BME280;47300;46.192;9.000;2022-12-10T09:03:36;96639.28;;;3.04;100.00
61434;BME280;47300;46.192;9.000;2022-12-10T09:06:03;96633.19;;;3.16;100.00
61434;BME280;47300;46.192;9.000;2022-12-10T09:08:28;96634.03;;;3.18;100.00
61434;BME280;47300;46.192;9.000;2022-12-10T09:10:53;96625.28;;;3.44;100.00
61434;BME280;47300;46.192;9.000;2022-12-10T09:13:18;96625.13;;;3.72;100.00
61434;BME280;47300;46.192;9.000;2022-12-10T09:15:53;96632.63;;;4.12;100.00
61434;BME280;47300;46.192;9.000;2022-12-10T09:18:18;96625.13;;;4.80;100.00
61434;BME280;47300;46.192;9.000;2022-12-10T09:20:44;96621.50;;;4.95;100.00
61434;BME280;47300;46.192;9.000;2022-12-10T09:23:09;96622.31;;;5.00;100.00
61434;BME280;47300;46.192;9.000;2022-12-10T09:25:34;96626.94;;;5.49;100.00
61434;BME280;47300;46.192;9.000;2022-12-10T09:27:59;96619.94;;;5.53;100.00
61434;BME280;47300;46.192;9.000;2022-12-10T09:30:24;96621.13;;;5.91;100.00
61434;BME280;47300;46.192;9.000;2022-12-10T09:32:50;96616.44;;;6.18;100.00
61434;BME280;47300;46.192;9.000;2022-12-10T09:35:15;96611.25;;;6.15;100.00
61434;BME280;47300;46.192;9.000;2022-12-10T09:37:40;96618.06;;;5.63;100.00
61434;BME280;47300;46.192;9.000;2022-12-10T09:40:06;96616.09;;;5.13;100.00
61434;BME280;47300;46.192;9.000;2022-12-10T09:45:34;96611.63;;;5.23;100.00
61434;BME280;47300;46.192;9.000;2022-12-10T09:53:29;96601.97;;;5.34;100.00
61434;BME280;47300;46.192;9.000;2022-12-10T09:55:57;96600.13;;;5.41;100.00
61434;BME280;47300;46.192;9.000;2022-12-10T09:58:24;96590.72;;;5.31;100.00
61434;BME280;47300;46.192;9.000;2022-12-10T10:01:12;96597.25;;;5.63;100.00
61434;BME280;47300;46.192;9.000;2022-12-10T10:03:41;96588.47;;;5.70;100.00
61434;BME280;47300;46.192;9.000;2022-12-10T10:06:11;96583.66;;;6.02;100.00
61434;BME280;47300;46.192;9.000;2022-12-10T10:08:49;96584.19;;;6.24;100.00
61434;BME280;47300;46.192;9.000;2022-12-10T10:11:20;96575.44;;;6.77;100.00
61434;BME280;47300;46.192;9.000;2022-12-10T10:16:56;96570.69;;;6.52;100.00
61434;BME280;47300;46.192;9.000;2022-12-10T10:19:30;96562.31;;;6.34;100.00
61434;BME280;47300;46.192;9.000;2022-12-10T10:21:56;96556.84;;;5.95;100.00
61434;BME280;47300;46.192;9.000;2022-12-10T10:24:28;96551.41;;;6.12;100.00
61434;BME280;47300;46.192;9.000;2022-12-10T10:27:09;96552.53;;;5.92;100.00
61434;BME280;47300;46.192;9.000;2022-12-10T10:29:36;96544.44;;;6.13;100.00
61434;BME280;47300;46.192;9.000;2022-12-10T10:32:14;96533.19;;;6.59;100.00
61434;BME280;47300;46.192;9.000;2022-12-10T10:34:40;96529.00;;;6.50;100.00
61434;BME280;47300;46.192;9.000;2022-12-10T10:37:06;96532.75;;;6.35;100.00
61434;BME280;47300;46.192;9.000;2022-12-10T10:39:32;96524.22;;;6.27;100.00
61434;BME280;47300;46.192;9.000;2022-12-10T10:42:08;96522.13;;;5.94;100.00
61434;BME280;47300;46.192;9.000;2022-12-10T10:44:36;96512.16;;;6.20;100.00
61434;BME280;47300;46.192;9.000;2022-12-10T10:49:50;96504.00;;;6.40;100.00
61434;BME280;47300;46.192;9.000;2022-12-10T10:52:16;96497.00;;;6.88;100.00
61434;BME280;47300;46.192;9.000;2022-12-10T10:54:44;96503.13;;;6.87;100.00
61434;BME280;47300;46.192;9.000;2022-12-10T10:57:33;96490.13;;;6.84;100.00
61434;BME280;47300;46.192;9.000;2022-12-10T11:00:21;96489.81;;;6.99;100.00
61434;BME280;47300;46.192;9.000;2022-12-10T11:02:49;96482.75;;;7.44;100.00
61434;BME280;47300;46.192;9.000;2022-12-10T11:07:43;96481.25;;;8.06;97.28
61434;BME280;47300;46.192;9.000;2022-12-10T11:10:20;96470.47;;;8.18;99.22
61434;BME280;47300;46.192;9.000;2022-12-10T11:17:54;96459.22;;;7.45;99.58
61434;BME280;47300;46.192;9.000;2022-12-10T11:22:53;96446.47;;;8.04;98.58
61434;BME280;47300;46.192;9.000;2022-12-10T11:25:38;96438.22;;;8.19;99.34
61434;BME280;47300;46.192;9.000;2022-12-10T11:28:36;96428.72;;;8.48;96.44
61434;BME280;47300;46.192;9.000;2022-12-10T11:31:18;96432.19;;;8.17;95.66
61434;BME280;47300;46.192;9.000;2022-12-10T11:36:38;96408.72;;;8.79;95.61
61434;BME280;47300;46.192;9.000;2022-12-10T11:44:21;96397.41;;;8.15;95.66
61434;BME280;47300;46.192;9.000;2022-12-10T11:54:49;96388.91;;;8.07;100.00
61434;BME280;47300;46.192;9.000;2022-12-10T12:05:26;96370.41;;;9.60;87.94
61434;BME280;47300;46.192;9.000;2022-12-10T12:13:11;96365.50;;;9.22;86.34
61434;BME280;47300;46.192;9.000;2022-12-10T12:18:21;96362.81;;;9.52;86.63
61434;BME280;47300;46.192;9.000;2022-12-10T12:20:53;96358.81;;;9.67;86.34
61434;BME280;47300;46.192;9.000;2022-12-10T12:26:09;96350.63;;;10.27;85.27
61434;BME280;47300;46.192;9.000;2022-12-10T12:28:50;96353.63;;;10.17;84.75
61434;BME280;47300;46.192;9.000;2022-12-10T12:31:21;96345.91;;;10.61;83.96
61434;BME280;47300;46.192;9.000;2022-12-10T12:34:02;96344.63;;;10.95;82.92
61434;BME280;47300;46.192;9.000;2022-12-10T12:36:32;96343.56;;;10.99;80.31
61434;BME280;47300;46.192;9.000;2022-12-10T12:39:16;96336.66;;;11.41;79.59
61434;BME280;47300;46.192;9.000;2022-12-10T12:42:14;96339.13;;;10.55;78.34
61434;BME280;47300;46.192;9.000;2022-12-10T12:44:46;96343.03;;;10.20;82.00
61434;BME280;47300;46.192;9.000;2022-12-10T12:47:30;96336.16;;;10.65;84.98
61434;BME280;47300;46.192;9.000;2022-12-10T12:49:58;96330.19;;;11.06;80.62
61434;BME280;47300;46.192;9.000;2022-12-10T12:55:14;96335.81;;;10.74;82.62
61434;BME280;47300;46.192;9.000;2022-12-10T12:57:49;96334.75;;;10.56;80.04
61434;BME280;47300;46.192;9.000;2022-12-10T13:00:18;96335.75;;;10.98;82.18
61434;BME280;47300;46.192;9.000;2022-12-10T13:05:29;96336.97;;;11.34;79.61
61434;BME280;47300;46.192;9.000;2022-12-10T13:08:22;96334.56;;;11.50;79.53
61434;BME280;47300;46.192;9.000;2022-12-10T13:10:59;96339.16;;;11.44;78.11
61434;BME280;47300;46.192;9.000;2022-12-10T13:13:37;96337.84;;;11.55;76.85
61434;BME280;47300;46.192;9.000;2022-12-10T13:29:54;96325.72;;;11.94;77.90
61434;BME280;47300;46.192;9.000;2022-12-10T13:48:58;96338.28;;;10.55;80.29
61434;BME280;47300;46.192;9.000;2022-12-10T13:54:17;96344.34;;;10.79;80.40
61434;BME280;47300;46.192;9.000;2022-12-10T14:02:28;96342.94;;;11.60;79.89
61434;BME280;47300;46.192;9.000;2022-12-10T14:08:01;96348.75;;;11.66;77.33
61434;BME280;47300;46.192;9.000;2022-12-10T14:10:32;96351.03;;;11.10;78.81
61434;BME280;47300;46.192;9.000;2022-12-10T14:13:00;96354.50;;;11.11;78.99
61434;BME280;47300;46.192;9.000;2022-12-10T14:15:27;96352.09;;;10.35;80.83
61434;BME280;47300;46.192;9.000;2022-12-10T14:18:08;96346.91;;;10.33;81.78
61434;BME280;47300;46.192;9.000;2022-12-10T14:20:35;96352.34;;;10.28;80.98
61434;BME280;47300;46.192;9.000;2022-12-10T14:23:25;96343.97;;;10.17;82.94
61434;BME280;47300;46.192;9.000;2022-12-10T14:28:48;96357.88;;;9.70;85.90
61434;BME280;47300;46.192;9.000;2022-12-10T14:31:35;96361.66;;;9.61;87.04
61434;BME280;47300;46.192;9.000;2022-12-10T14:34:07;96364.56;;;9.52;86.24
61434;BME280;47300;46.192;9.000;2022-12-10T14:36:37;96361.25;;;9.20;88.17
61434;BME280;47300;46.192;9.000;2022-12-10T14:39:12;96362.66;;;9.30;88.41
61434;BME280;47300;46.192;9.000;2022-12-10T14:41:39;96363.41;;;9.34;86.69
61434;BME280;47300;46.192;9.000;2022-12-10T14:44:05;96368.53;;;9.64;87.53
61434;BME280;47300;46.192;9.000;2022-12-10T14:46:31;96365.22;;;9.59;87.86
61434;BME280;47300;46.192;9.000;2022-12-10T14:48:57;96364.41;;;9.56;87.35
61434;BME280;47300;46.192;9.000;2022-12-10T14:51:26;96374.25;;;9.50;87.66
61434;BME280;47300;46.192;9.000;2022-12-10T14:53:55;96373.22;;;9.27;87.61
61434;BME280;47300;46.192;9.000;2022-12-10T14:56:26;96370.09;;;9.16;89.11
61434;BME280;47300;46.192;9.000;2022-12-10T15:01:46;96372.44;;;8.96;89.75
61434;BME280;47300;46.192;9.000;2022-12-10T15:04:16;96364.63;;;8.95;90.63
61434;BME280;47300;46.192;9.000;2022-12-10T15:06:42;96364.09;;;8.83;93.38
61434;BME280;47300;46.192;9.000;2022-12-10T15:09:15;96369.28;;;8.23;96.69